Time;durP1;ratioP1;P1;durP2;ratioP2;P2;SDS_P1;SDS_P2;PMS_P1;PMS_P2;Temp;Humidity;BMP_temperature;BMP_pressure;BME280_temperature;BME280_humidity;BME280_pressure;Samples;Min_cycle;Max_cycle;Signal;HPM_P1;HPM_P2
2022/09/03 00:02:18;;;;;;;9.15;6.25;;;;;;;15.53;61.94;100932.34;4973790;28;20065;-73
2022/09/03 00:04:59;;;;;;;10.20;5.45;;;;;;;15.48;62.20;100927.69;4973522;28;20037;-73
2022/09/03 00:07:50;;;;;;;9.65;5.90;;;;;;;15.46;62.14;100934.41;4969367;28;20394;-73
2022/09/03 00:10:26;;;;;;;8.70;5.53;;;;;;;15.43;62.94;100935.69;4972245;28;20030;-74
2022/09/03 00:12:56;;;;;;;10.23;6.03;;;;;;;15.42;63.72;100930.56;4972552;28;20130;-73
2022/09/03 00:15:23;;;;;;;7.53;5.38;;;;;;;15.37;63.51;100927.78;4973497;28;20038;-73
2022/09/03 00:17:51;;;;;;;8.32;5.70;;;;;;;15.42;63.73;100938.63;4972430;28;20100;-74
2022/09/03 00:20:26;;;;;;;7.18;5.53;;;;;;;15.42;63.53;100939.47;4973324;28;20039;-74
2022/09/03 00:22:57;;;;;;;8.20;6.10;;;;;;;15.34;63.54;100928.28;4971841;28;20046;-74
2022/09/03 00:25:28;;;;;;;7.97;5.43;;;;;;;15.34;64.11;100930.97;4973158;28;20487;-74
2022/09/03 00:27:56;;;;;;;10.10;5.85;;;;;;;15.29;64.30;100937.06;4973324;28;20080;-74
2022/09/03 00:33:46;;;;;;;10.10;5.78;;;;;;;15.18;64.68;100930.69;4973358;28;20081;-73
2022/09/03 00:36:21;;;;;;;6.63;5.70;;;;;;;15.20;64.59;100935.81;4972345;28;20057;-74
2022/09/03 00:38:46;;;;;;;8.90;6.40;;;;;;;15.13;65.31;100929.78;4971868;28;20483;-73
2022/09/03 00:41:32;;;;;;;11.23;6.13;;;;;;;15.09;64.86;100928.63;4972243;28;20117;-73
2022/09/03 00:44:31;;;;;;;10.07;6.18;;;;;;;15.09;64.78;100937.53;4973006;28;20361;-74
2022/09/03 00:50:49;;;;;;;6.63;5.80;;;;;;;14.99;65.07;100936.50;4973043;28;20213;-73
2022/09/03 00:53:37;;;;;;;10.32;5.75;;;;;;;14.95;65.22;100936.16;4970133;28;20043;-74
2022/09/03 00:56:24;;;;;;;7.38;6.03;;;;;;;14.95;65.55;100943.44;4972747;28;20125;-73
2022/09/03 00:58:59;;;;;;;7.78;5.47;;;;;;;14.87;66.14;100933.88;4972792;28;20026;-73
2022/09/03 01:01:44;;;;;;;8.90;5.95;;;;;;;14.85;66.54;100931.41;4964410;28;20097;-73
2022/09/03 01:04:38;;;;;;;7.35;6.00;;;;;;;14.84;66.19;100926.28;4971508;28;20038;-73
2022/09/03 01:07:13;;;;;;;8.30;5.60;;;;;;;14.82;66.33;100931.09;4950289;28;20050;-73
2022/09/03 01:09:47;;;;;;;8.30;5.13;;;;;;;14.83;66.85;100933.53;4972709;28;20081;-74
2022/09/03 01:12:31;;;;;;;8.88;6.05;;;;;;;14.79;66.48;100934.25;4967180;28;20050;-73
2022/09/03 01:15:11;;;;;;;9.85;5.82;;;;;;;14.78;66.46;100930.75;4972594;28;20041;-73
2022/09/03 01:18:05;;;;;;;8.55;5.80;;;;;;;14.76;66.18;100929.34;4971624;28;20049;-73
2022/09/03 01:20:47;;;;;;;9.52;5.75;;;;;;;14.81;66.43;100922.19;4972646;28;20590;-73
2022/09/03 01:23:43;;;;;;;16.02;5.97;;;;;;;14.76;66.92;100922.09;4971978;28;20038;-73
2022/09/03 01:26:28;;;;;;;12.45;5.50;;;;;;;14.71;66.85;100921.16;4972475;28;20118;-74
2022/09/03 01:32:30;;;;;;;12.63;5.80;;;;;;;14.70;67.15;100932.97;4972736;28;20078;-73
2022/09/03 01:35:28;;;;;;;10.43;6.00;;;;;;;14.62;67.58;100931.50;4974998;28;20442;-73
2022/09/03 01:38:46;;;;;;;9.93;5.95;;;;;;;14.62;67.08;100928.78;4975855;28;20077;-74
2022/09/03 01:42:14;;;;;;;8.77;5.72;;;;;;;14.59;68.05;100931.97;4912079;29;20111;-73
2022/09/03 01:44:11;;;;;;;11.27;5.82;;;;;;;14.53;68.43;100933.75;4973261;28;20109;-73
2022/09/03 01:46:39;;;;;;;10.80;6.85;;;;;;;14.51;68.39;100924.28;4975666;28;20043;-73
2022/09/03 01:49:21;;;;;;;8.50;5.78;;;;;;;14.47;68.34;100926.63;4974887;28;20399;-73
2022/09/03 01:55:30;;;;;;;8.50;5.68;;;;;;;14.52;67.80;100928.59;4975737;28;20104;-74
2022/09/03 01:58:05;;;;;;;9.80;5.28;;;;;;;14.42;68.63;100925.66;4975368;28;20109;-73
2022/09/03 02:00:34;;;;;;;7.55;5.32;;;;;;;14.42;69.22;100925.66;4974727;28;20039;-73
2022/09/03 02:03:04;;;;;;;7.38;5.22;;;;;;;14.41;68.82;100926.69;4975428;28;20027;-74
2022/09/03 02:05:30;;;;;;;10.23;5.90;;;;;;;14.35;69.30;100915.03;4974792;28;20519;-73
2022/09/03 02:07:55;;;;;;;8.23;5.47;;;;;;;14.50;68.72;100928.84;4975260;28;20057;-73
2022/09/03 02:10:30;;;;;;;6.67;5.50;;;;;;;14.40;68.87;100919.69;4975320;28;20045;-73
2022/09/03 02:13:19;;;;;;;7.72;5.53;;;;;;;14.40;69.04;100922.38;4974550;28;20038;-73
2022/09/03 02:15:47;;;;;;;9.77;5.60;;;;;;;14.38;68.75;100917.25;4974899;28;20039;-73
2022/09/03 02:18:19;;;;;;;7.50;4.93;;;;;;;14.35;68.70;100925.78;4974319;28;20050;-73
2022/09/03 02:20:46;;;;;;;6.30;5.10;;;;;;;14.38;68.64;100924.50;4974057;28;20530;-73
2022/09/03 02:23:12;;;;;;;7.03;5.20;;;;;;;14.38;68.79;100919.09;4973578;28;20394;-74
2022/09/03 02:25:43;;;;;;;7.97;5.15;;;;;;;14.32;68.73;100918.19;4974575;28;20043;-73
2022/09/03 02:28:09;;;;;;;6.72;5.00;;;;;;;14.25;68.87;100912.13;4973944;28;20039;-73
2022/09/03 02:30:35;;;;;;;7.28;5.35;;;;;;;14.24;69.01;100915.88;4973972;28;20161;-73
2022/09/03 02:33:00;;;;;;;7.50;5.45;;;;;;;14.25;69.04;100915.63;4975034;28;20483;-73
2022/09/03 02:35:26;;;;;;;6.43;5.15;;;;;;;14.22;69.32;100909.91;4972972;28;20055;-74
2022/09/03 02:37:52;;;;;;;8.13;5.35;;;;;;;14.27;69.13;100915.41;4974701;28;20118;-74
2022/09/03 02:40:17;;;;;;;9.18;5.25;;;;;;;14.24;68.95;100913.19;4974904;28;20462;-73
2022/09/03 02:42:45;;;;;;;8.30;5.75;;;;;;;14.22;69.70;100916.13;4974027;28;20911;-73
2022/09/03 02:45:27;;;;;;;7.32;4.82;;;;;;;14.22;68.98;100921.50;4972955;28;20035;-73
2022/09/03 02:47:56;;;;;;;8.18;4.78;;;;;;;14.18;69.27;100920.34;4973774;28;20078;-73
2022/09/03 02:50:22;;;;;;;9.60;5.13;;;;;;;14.13;69.45;100912.13;4974701;28;20034;-73
2022/09/03 02:52:47;;;;;;;9.00;5.32;;;;;;;14.13;69.92;100920.19;4974693;28;20037;-73
2022/09/03 02:55:14;;;;;;;10.70;4.65;;;;;;;14.09;69.46;100908.28;4973901;28;20117;-73
2022/09/03 02:57:39;;;;;;;6.93;4.68;;;;;;;14.06;69.71;100916.00;4974604;28;20033;-73
2022/09/03 03:00:06;;;;;;;6.07;4.15;;;;;;;14.06;69.59;100919.50;4973822;28;20051;-73
2022/09/03 03:02:31;;;;;;;9.70;5.32;;;;;;;13.96;69.66;100903.16;4974433;28;20110;-73
2022/09/03 03:08:23;;;;;;;6.07;4.75;;;;;;;14.04;69.75;100912.72;4974743;28;20037;-73
2022/09/03 03:10:51;;;;;;;8.05;4.68;;;;;;;14.00;70.28;100912.38;4973873;28;20035;-73
2022/09/03 03:13:17;;;;;;;6.68;4.53;;;;;;;14.06;69.94;100916.00;4974255;28;20034;-73
2022/09/03 03:15:43;;;;;;;10.85;4.85;;;;;;;14.02;70.11;100912.97;4974233;28;20033;-73
2022/09/03 03:18:10;;;;;;;6.68;4.53;;;;;;;14.01;70.50;100918.59;4973347;28;20491;-73
2022/09/03 03:20:37;;;;;;;8.98;5.20;;;;;;;13.98;70.26;100908.28;4974183;28;20037;-73
2022/09/03 03:23:04;;;;;;;7.65;4.88;;;;;;;13.90;71.29;100902.22;4971928;28;20043;-73
2022/09/03 03:25:32;;;;;;;7.38;4.75;;;;;;;13.92;70.74;100924.31;4974245;28;20439;-73
2022/09/03 03:27:57;;;;;;;5.70;4.47;;;;;;;13.90;70.22;100917.53;4972702;28;20058;-74
2022/09/03 03:30:22;;;;;;;6.37;5.00;;;;;;;13.93;70.17;100917.06;4973249;28;20066;-74
2022/09/03 03:32:48;;;;;;;7.63;4.30;;;;;;;13.93;70.35;100917.88;4972659;28;20314;-73
2022/09/03 03:35:13;;;;;;;8.27;4.82;;;;;;;13.88;70.34;100917.78;4973139;28;20113;-73
2022/09/03 03:37:39;;;;;;;5.65;4.10;;;;;;;13.89;70.45;100922.09;4973921;28;20034;-73
2022/09/03 03:40:06;;;;;;;8.15;4.80;;;;;;;13.81;70.88;100914.38;4973882;28;20101;-73
2022/09/03 03:42:33;;;;;;;7.00;4.35;;;;;;;13.76;70.77;100911.56;4973256;28;20054;-73
2022/09/03 03:44:58;;;;;;;7.00;4.57;;;;;;;13.76;71.32;100919.63;4973933;28;20027;-73
2022/09/03 03:47:23;;;;;;;7.38;4.60;;;;;;;13.75;71.18;100918.00;4972998;28;20553;-73
2022/09/03 03:49:49;;;;;;;7.13;4.47;;;;;;;13.72;71.75;100914.97;4973748;28;20034;-74
2022/09/03 03:52:14;;;;;;;9.17;4.70;;;;;;;13.75;71.65;100926.06;4973736;28;20368;-73
2022/09/03 03:54:39;;;;;;;8.73;5.00;;;;;;;13.67;71.96;100912.97;4973025;28;20278;-74
2022/09/03 03:57:05;;;;;;;5.43;4.68;;;;;;;13.71;72.04;100922.19;4972839;28;20381;-74
2022/09/03 03:59:30;;;;;;;7.07;4.38;;;;;;;13.71;72.16;100916.81;4972851;28;20050;-73
2022/09/03 04:01:55;;;;;;;9.43;4.60;;;;;;;13.76;72.10;100916.94;4973604;28;20054;-73
2022/09/03 04:04:21;;;;;;;6.68;4.50;;;;;;;13.75;72.08;100915.31;4973568;28;20083;-73
2022/09/03 04:06:46;;;;;;;6.10;4.82;;;;;;;13.77;72.22;100912.38;4972722;28;20039;-74
2022/09/03 04:09:11;;;;;;;8.10;4.50;;;;;;;13.83;71.63;100911.44;4973455;28;20062;-73
2022/09/03 04:11:36;;;;;;;6.40;4.10;;;;;;;13.85;71.56;100925.47;4972744;28;20294;-73
2022/09/03 04:14:02;;;;;;;6.80;4.38;;;;;;;13.84;71.33;100919.28;4973379;28;20685;-73
2022/09/03 04:16:27;;;;;;;6.03;3.90;;;;;;;13.86;71.63;100922.53;4973197;28;20026;-73
2022/09/03 04:18:54;;;;;;;7.20;4.50;;;;;;;13.83;71.74;100916.81;4967819;28;20039;-72
2022/09/03 04:21:22;;;;;;;9.80;4.10;;;;;;;13.86;71.40;100914.47;4973237;28;20035;-74
2022/09/03 04:23:49;;;;;;;8.13;4.10;;;;;;;13.86;71.30;100911.78;4968921;28;20605;-74
2022/09/03 04:26:17;;;;;;;4.88;3.95;;;;;;;13.87;71.17;100912.59;4971984;28;20027;-72
2022/09/03 04:28:44;;;;;;;8.00;4.05;;;;;;;13.82;71.55;100910.63;4971815;28;20038;-73
2022/09/03 04:31:12;;;;;;;8.05;4.07;;;;;;;13.83;71.34;100908.75;4972347;28;20058;-73
2022/09/03 04:33:38;;;;;;;6.55;3.85;;;;;;;13.78;71.92;100906.78;4973137;28;20395;-73
2022/09/03 04:39:25;;;;;;;7.32;3.83;;;;;;;13.75;71.85;100907.25;4973383;28;20045;-73
2022/09/03 04:41:50;;;;;;;6.32;4.13;;;;;;;13.73;71.92;100906.66;4972232;28;20046;-74
2022/09/03 04:44:15;;;;;;;6.75;3.83;;;;;;;13.69;71.82;100899.28;4973060;28;20446;-74
2022/09/03 04:46:41;;;;;;;6.50;3.70;;;;;;;13.64;72.52;100898.13;4973155;28;20035;-73
2022/09/03 04:49:08;;;;;;;7.22;4.03;;;;;;;13.62;72.80;100905.63;4972227;28;20824;-73
2022/09/03 04:51:33;;;;;;;4.13;3.38;;;;;;;13.63;72.44;100906.44;4972847;28;20039;-73
2022/09/03 04:57:21;;;;;;;7.00;3.90;;;;;;;13.65;72.78;100909.69;4973074;28;20066;-74
2022/09/03 04:59:46;;;;;;;7.53;3.50;;;;;;;13.64;72.44;100919.63;4972614;28;20030;-73
2022/09/03 05:02:14;;;;;;;6.13;3.43;;;;;;;13.69;71.93;100921.63;4972344;28;20041;-73
2022/09/03 05:08:02;;;;;;;6.25;3.70;;;;;;;13.80;71.83;100918.09;4972375;28;20414;-73
2022/09/03 05:10:28;;;;;;;6.35;4.05;;;;;;;13.78;72.11;100912.16;4972674;28;20078;-74
2022/09/03 05:12:59;;;;;;;6.70;3.45;;;;;;;13.94;71.37;100902.56;4971929;28;20042;-74
2022/09/03 05:15:24;;;;;;;13.40;3.97;;;;;;;14.11;71.74;100908.03;4972615;28;20474;-74
2022/09/03 05:17:54;;;;;;;5.20;3.83;;;;;;;14.27;70.38;100902.75;4971064;28;20026;-73
2022/09/03 05:20:20;;;;;;;4.93;3.40;;;;;;;14.54;69.60;100915.72;4972087;28;20637;-73
2022/09/03 05:22:45;;;;;;;5.55;3.47;;;;;;;14.78;68.72;100908.41;4971323;28;20031;-74
2022/09/03 05:25:10;;;;;;;4.93;3.83;;;;;;;15.07;67.62;100906.50;4971721;28;20046;-74
2022/09/03 05:27:36;;;;;;;6.70;3.70;;;;;;;15.32;66.53;100906.13;4971161;28;20794;-74
2022/09/03 05:30:01;;;;;;;9.00;3.55;;;;;;;15.57;65.80;100911.09;4971226;28;20513;-75
2022/09/03 05:32:29;;;;;;;6.03;3.38;;;;;;;15.77;65.32;100912.28;4971849;28;20035;-73
2022/09/03 05:34:55;;;;;;;3.85;3.05;;;;;;;16.00;64.07;100913.97;4972540;28;20027;-74
2022/09/03 05:37:21;;;;;;;6.40;3.30;;;;;;;16.20;63.38;100916.16;4971546;28;20542;-74
2022/09/03 05:39:46;;;;;;;4.55;3.25;;;;;;;16.25;63.03;100918.09;4972489;28;20058;-74
2022/09/03 05:42:13;;;;;;;4.80;3.37;;;;;;;15.94;63.56;100916.84;4971662;28;20050;-74
2022/09/03 05:44:38;;;;;;;4.93;3.50;;;;;;;15.87;64.56;100914.31;4972319;28;20283;-74
2022/09/03 05:47:03;;;;;;;6.80;3.33;;;;;;;15.94;64.69;100900.66;4971284;28;20056;-74
2022/09/03 05:52:50;;;;;;;6.10;3.63;;;;;;;17.05;61.16;100909.31;4972804;28;20171;-73
2022/09/03 05:55:16;;;;;;;6.75;3.58;;;;;;;17.50;59.02;100910.81;4971308;28;20814;-73
2022/09/03 05:57:42;;;;;;;9.52;3.95;;;;;;;17.90;59.14;100924.66;4972033;28;20035;-73
2022/09/03 06:00:09;;;;;;;6.28;3.40;;;;;;;18.24;57.01;100913.53;4970187;28;20109;-74
2022/09/03 06:02:34;;;;;;;8.85;3.97;;;;;;;18.60;55.47;100911.78;4970462;28;20039;-74
2022/09/03 06:05:00;;;;;;;8.70;3.60;;;;;;;18.88;55.20;100905.94;4970691;28;20041;-74
2022/09/03 06:07:26;;;;;;;5.43;3.53;;;;;;;19.15;54.25;100911.13;4971156;28;20286;-74
2022/09/03 06:09:51;;;;;;;8.80;3.65;;;;;;;19.61;52.85;100913.88;4971869;28;20282;-74
2022/09/03 06:12:16;;;;;;;7.10;3.47;;;;;;;19.77;52.24;100912.78;4966829;28;20042;-74
2022/09/03 06:14:44;;;;;;;6.80;3.70;;;;;;;19.44;52.61;100910.59;4970698;28;20046;-74
2022/09/03 06:17:11;;;;;;;8.10;3.55;;;;;;;18.80;53.47;100906.47;4971835;28;20306;-73
2022/09/03 06:19:37;;;;;;;7.20;3.45;;;;;;;18.13;55.45;100919.94;4971327;28;20443;-74
2022/09/03 06:22:02;;;;;;;7.03;3.97;;;;;;;17.80;56.13;100919.19;4974945;28;20062;-73
2022/09/03 06:24:28;;;;;;;6.63;3.70;;;;;;;17.59;56.69;100910.06;4974373;28;20137;-74
2022/09/03 06:26:57;;;;;;;6.75;3.78;;;;;;;17.40;57.58;100924.25;4975225;28;20109;-73
2022/09/03 06:29:22;;;;;;;7.03;4.20;;;;;;;17.16;58.22;100918.38;4972053;28;20058;-74
2022/09/03 06:31:47;;;;;;;5.57;4.33;;;;;;;17.11;59.72;100919.13;4975055;28;20126;-73
2022/09/03 06:34:13;;;;;;;5.57;4.18;;;;;;;17.06;60.40;100923.66;4975140;28;20301;-73
2022/09/03 06:36:40;;;;;;;8.38;4.60;;;;;;;17.04;60.97;100921.19;4969406;28;20436;-74
2022/09/03 06:39:05;;;;;;;13.30;4.75;;;;;;;17.19;59.73;100920.56;4974884;28;20031;-73
2022/09/03 06:41:34;;;;;;;8.50;4.35;;;;;;;17.25;59.90;100916.81;4974011;28;20442;-73
2022/09/03 06:47:21;;;;;;;8.00;4.40;;;;;;;18.88;56.76;100919.47;4975228;28;20085;-72
2022/09/03 06:49:46;;;;;;;7.50;4.80;;;;;;;20.11;52.11;100926.56;4974900;28;20027;-73
2022/09/03 06:55:34;;;;;;;8.23;4.80;;;;;;;20.88;50.31;100929.81;4975110;28;20607;-72
2022/09/03 06:57:59;;;;;;;10.18;4.63;;;;;;;20.51;48.51;100927.53;4973998;28;20026;-72
2022/09/03 07:00:24;;;;;;;8.90;4.93;;;;;;;20.19;50.13;100927.88;4972308;28;20173;-73
2022/09/03 07:02:57;;;;;;;9.40;5.32;;;;;;;20.04;50.66;100926.03;4974662;28;20282;-72
2022/09/03 07:05:24;;;;;;;9.30;5.05;;;;;;;19.77;53.36;100928.25;4973781;28;20074;-73
2022/09/03 07:07:49;;;;;;;7.82;4.97;;;;;;;19.75;52.41;100925.00;4974448;28;20038;-72
2022/09/03 07:10:19;;;;;;;10.77;5.37;;;;;;;19.86;52.34;100929.31;4973718;28;20051;-73
2022/09/03 07:12:45;;;;;;;9.82;5.45;;;;;;;19.91;52.13;100926.59;4974360;28;20364;-72
2022/09/03 07:18:33;;;;;;;10.55;5.68;;;;;;;19.88;51.17;100923.63;4974436;28;20061;-73
2022/09/03 07:21:00;;;;;;;11.15;6.25;;;;;;;19.81;52.94;100929.34;4973687;28;20039;-73
2022/09/03 07:23:27;;;;;;;15.05;6.43;;;;;;;20.35;51.80;100925.97;4970773;28;20035;-72
2022/09/03 07:25:57;;;;;;;12.13;6.90;;;;;;;22.12;47.78;100923.16;4973149;28;20033;-73
2022/09/03 07:28:24;;;;;;;15.02;7.28;;;;;;;23.44;44.08;100926.88;4968837;28;20053;-73
2022/09/03 07:30:50;;;;;;;11.90;6.90;;;;;;;23.94;42.14;100929.81;4972583;28;20031;-73
2022/09/03 07:33:16;;;;;;;10.60;6.70;;;;;;;24.58;41.46;100937.09;4968599;28;20442;-71
2022/09/03 07:35:41;;;;;;;13.38;7.20;;;;;;;25.08;39.83;100933.56;4974053;28;20051;-71
2022/09/03 07:38:06;;;;;;;14.15;7.65;;;;;;;25.24;38.72;100924.69;4973908;28;20105;-71
2022/09/03 07:40:32;;;;;;;15.15;7.80;;;;;;;25.66;37.87;100928.03;4973208;28;20495;-71
2022/09/03 07:43:03;;;;;;;13.45;7.55;;;;;;;26.17;37.25;100935.72;4972906;28;20403;-71
2022/09/03 07:45:30;;;;;;;15.38;7.93;;;;;;;26.27;36.38;100940.13;4968775;28;20093;-70
2022/09/03 07:47:55;;;;;;;15.45;8.10;;;;;;;26.61;36.58;100941.41;4973849;28;20038;-72
2022/09/03 07:50:21;;;;;;;17.52;8.07;;;;;;;26.78;35.41;100938.69;4973079;28;20046;-70
2022/09/03 07:52:46;;;;;;;11.60;7.00;;;;;;;27.22;33.93;100942.31;4973786;28;20058;-71
2022/09/03 07:55:13;;;;;;;14.20;7.90;;;;;;;27.66;34.04;100941.94;4973727;28;20105;-70
2022/09/03 07:57:38;;;;;;;15.43;7.90;;;;;;;27.68;32.77;100925.13;4968119;28;20598;-72
2022/09/03 08:00:07;;;;;;;16.80;7.85;;;;;;;27.81;32.88;100935.13;4973743;28;20070;-71
2022/09/03 08:02:33;;;;;;;14.40;7.63;;;;;;;28.59;32.91;100943.88;4968300;28;20043;-71
2022/09/03 08:08:19;;;;;;;16.92;8.93;;;;;;;30.31;29.96;100937.94;4973836;28;20049;-72
2022/09/03 08:14:09;;;;;;;17.40;8.60;;;;;;;30.47;29.26;100938.84;4973969;28;20041;-71
2022/09/03 08:19:57;;;;;;;18.58;7.47;;;;;;;30.07;28.57;100949.78;4973778;28;20410;-72
2022/09/03 08:25:44;;;;;;;19.40;8.60;;;;;;;29.56;29.50;100949.16;4973625;28;20093;-73
2022/09/03 08:28:09;;;;;;;9.77;6.50;;;;;;;29.76;29.05;100944.72;4973447;28;20031;-71
2022/09/03 08:30:35;;;;;;;15.30;7.60;;;;;;;30.29;28.66;100953.22;4972522;28;20701;-73
2022/09/03 08:36:28;;;;;;;16.90;6.88;;;;;;;31.30;28.22;100958.75;4973768;28;20046;-74
2022/09/03 08:42:45;;;;;;;14.88;6.32;;;;;;;31.68;28.83;100958.22;4973526;28;20088;-72
2022/09/03 08:48:33;;;;;;;13.13;5.45;;;;;;;32.74;25.56;100964.88;4973585;28;20560;-71
2022/09/03 08:51:03;;;;;;;11.40;5.40;;;;;;;32.45;26.26;100952.34;4973197;28;20467;-71
2022/09/03 08:57:04;;;;;;;8.85;4.15;;;;;;;32.30;26.87;100957.50;4973395;28;20090;-71
2022/09/03 08:59:31;;;;;;;5.63;3.20;;;;;;;31.60;26.52;100960.00;4972323;28;20046;-71
2022/09/03 09:02:20;;;;;;;5.55;2.92;;;;;;;31.11;27.66;100964.88;4973100;28;20406;-72
2022/09/03 09:08:28;;;;;;;6.55;3.05;;;;;;;29.85;29.83;100955.69;4973475;28;20045;-71
2022/09/03 09:14:39;;;;;;;8.60;3.75;;;;;;;27.69;32.14;100946.78;4973140;28;20533;-72
2022/09/03 09:20:41;;;;;;;7.97;3.65;;;;;;;26.50;34.92;100958.13;4973019;28;20110;-72
2022/09/03 09:23:12;;;;;;;7.38;3.00;;;;;;;26.00;35.81;100949.34;4967516;28;20050;-73
2022/09/03 09:25:47;;;;;;;5.55;3.30;;;;;;;25.84;36.53;100956.38;4971421;28;20049;-73
2022/09/03 09:28:27;;;;;;;11.77;3.47;;;;;;;25.82;35.82;100955.88;4971890;28;20047;-72
2022/09/03 09:30:55;;;;;;;6.40;3.40;;;;;;;25.71;36.41;100959.97;4972321;28;20030;-72
2022/09/03 09:36:48;;;;;;;7.65;3.50;;;;;;;25.08;37.85;100955.44;4972769;28;20256;-72
2022/09/03 09:39:16;;;;;;;7.13;4.00;;;;;;;25.21;37.31;100946.41;4972035;28;20031;-72
2022/09/03 09:45:10;;;;;;;8.02;3.95;;;;;;;25.07;38.31;100951.09;4972722;28;20061;-72
2022/09/03 09:51:10;;;;;;;5.85;3.60;;;;;;;24.99;38.86;100952.63;4972033;28;20078;-72
2022/09/03 09:57:03;;;;;;;7.43;4.05;;;;;;;25.05;38.99;100958.81;4975411;28;20050;-72
2022/09/03 09:59:30;;;;;;;5.60;3.30;;;;;;;25.11;39.13;100952.09;4975612;28;20027;-71
2022/09/03 10:02:26;;;;;;;8.90;4.22;;;;;;;25.14;38.33;100955.00;4975435;28;20033;-71
2022/09/03 10:08:20;;;;;;;8.25;3.90;;;;;;;25.21;39.08;100960.09;4975380;28;20459;-71
2022/09/03 10:10:48;;;;;;;5.35;3.40;;;;;;;25.27;38.11;100953.38;4975361;28;20027;-71
2022/09/03 10:13:23;;;;;;;8.57;3.30;;;;;;;25.02;38.40;100950.09;4975380;28;20462;-72
2022/09/03 10:16:01;;;;;;;7.85;3.33;;;;;;;25.08;38.34;100952.72;4974527;28;20034;-72
2022/09/03 10:18:38;;;;;;;8.38;4.30;;;;;;;25.16;38.70;100947.34;4975177;28;20041;-72
2022/09/03 10:21:19;;;;;;;8.30;3.78;;;;;;;25.17;39.14;100935.25;4974379;28;20458;-72
2022/09/03 10:23:58;;;;;;;6.22;3.80;;;;;;;25.22;37.43;100939.81;4975173;28;20034;-71
2022/09/03 10:26:29;;;;;;;7.55;4.03;;;;;;;25.23;38.21;100941.44;4969786;28;20109;-70
2022/09/03 10:32:28;;;;;;;8.18;4.57;;;;;;;25.09;39.30;100940.66;4975213;28;20046;-72
2022/09/03 10:38:22;;;;;;;8.65;3.92;;;;;;;25.14;39.06;100935.84;4975180;28;20105;-72
2022/09/03 10:44:25;;;;;;;10.48;5.30;;;;;;;25.39;39.29;100937.19;4975201;28;20069;-74
2022/09/03 10:50:37;;;;;;;8.85;3.83;;;;;;;25.54;39.16;100942.31;4975016;28;20066;-74
2022/09/03 10:59:58;;;;;;;12.93;3.90;;;;;;;25.58;38.52;100931.53;4975009;28;20054;-73
2022/09/03 11:06:08;;;;;;;12.90;5.82;;;;;;;26.31;37.09;100937.53;4974578;28;20089;-74
2022/09/03 11:08:41;;;;;;;15.30;5.22;;;;;;;26.60;36.79;100924.13;4971150;28;20475;-75
2022/09/03 11:17:58;;;;;;;11.13;5.88;;;;;;;26.04;38.57;100924.88;4974432;28;20094;-73
2022/09/03 11:24:22;;;;;;;16.88;5.85;;;;;;;25.68;38.79;100927.75;4974683;28;20435;-72
2022/09/03 11:30:23;;;;;;;12.57;5.40;;;;;;;25.61;38.19;100920.75;4973778;28;20042;-73
2022/09/03 11:36:11;;;;;;;11.93;5.20;;;;;;;25.55;38.34;100916.53;4974688;28;20557;-73
2022/09/03 11:38:38;;;;;;;7.65;5.13;;;;;;;25.60;38.67;100915.59;4974078;28;20023;-72
2022/09/03 11:44:38;;;;;;;9.27;4.40;;;;;;;25.86;38.66;100918.50;4974121;28;20066;-73
2022/09/03 11:50:32;;;;;;;14.18;7.38;;;;;;;25.61;38.63;100904.31;4974454;28;20070;-73
2022/09/03 11:56:16;;;;;;;13.60;6.65;;;;;;;25.78;38.50;100911.06;4973787;28;19925;-72
2022/09/03 11:58:42;;;;;;;15.93;6.00;;;;;;;25.89;37.95;100895.94;4973032;28;20070;-73
2022/09/03 12:01:10;;;;;;;9.40;6.40;;;;;;;26.05;37.74;100912.81;4973670;28;20546;-74
2022/09/03 12:03:50;;;;;;;13.27;6.55;;;;;;;26.04;37.04;100917.47;4972491;28;20060;-74
2022/09/03 12:10:02;;;;;;;11.50;6.60;;;;;;;25.98;38.11;100910.50;4974395;28;20045;-71
2022/09/03 12:12:40;;;;;;;13.45;6.47;;;;;;;25.92;37.79;100917.25;4968220;28;20070;-72
2022/09/03 12:15:25;;;;;;;10.82;6.68;;;;;;;25.97;37.94;100916.28;4973541;28;20398;-71
2022/09/03 12:20:38;;;;;;;8.02;5.32;;;;;;;27.04;36.54;100917.59;4973809;28;20054;-72
2022/09/03 12:23:04;;;;;;;13.55;5.45;;;;;;;27.35;35.39;100911.09;4972557;28;20499;-72
2022/09/03 12:25:29;;;;;;;12.03;5.57;;;;;;;27.39;34.71;100918.38;4973211;28;20035;-71
2022/09/03 12:31:23;;;;;;;7.57;4.18;;;;;;;27.57;33.69;100910.91;4973485;28;20093;-73
2022/09/03 12:37:34;;;;;;;7.30;3.58;;;;;;;28.93;32.06;100912.59;4973752;28;20069;-74
2022/09/03 12:43:27;;;;;;;5.43;3.53;;;;;;;31.48;28.48;100906.72;4973592;28;20185;-73
2022/09/03 12:49:14;;;;;;;10.65;4.00;;;;;;;29.09;30.50;100907.25;4973168;28;20077;-73
2022/09/03 12:51:42;;;;;;;9.90;4.20;;;;;;;28.00;32.03;100905.28;4973170;28;20026;-73
2022/09/03 12:57:44;;;;;;;7.30;2.97;;;;;;;27.73;32.89;100903.78;4973446;28;20144;-74
2022/09/03 13:03:53;;;;;;;4.57;2.65;;;;;;;29.01;30.48;100910.91;4973394;28;20125;-72
2022/09/03 13:09:41;;;;;;;4.97;2.80;;;;;;;31.04;26.37;100906.66;4972650;28;20093;-74
2022/09/03 13:15:28;;;;;;;5.05;2.65;;;;;;;30.06;28.05;100903.19;4972328;28;20178;-74
2022/09/03 13:21:33;;;;;;;8.23;3.90;;;;;;;30.62;28.01;100900.66;4973002;28;20085;-73
2022/09/03 13:27:21;;;;;;;7.53;3.97;;;;;;;31.83;26.24;100893.88;4971906;28;19940;-74
2022/09/03 13:33:19;;;;;;;8.25;4.15;;;;;;;31.71;26.38;100875.38;4976215;28;20046;-75
2022/09/03 13:39:17;;;;;;;10.43;3.80;;;;;;;31.18;27.21;100881.41;4976283;28;20081;-74
2022/09/03 13:51:30;;;;;;;7.65;3.45;;;;;;;28.59;30.93;100885.25;4975246;28;20049;-73
2022/09/03 13:57:37;;;;;;;4.97;3.13;;;;;;;27.70;32.04;100889.88;4975789;28;20566;-71
2022/09/03 14:03:37;;;;;;;8.20;3.10;;;;;;;27.10;33.52;100883.34;4976041;28;20050;-70
2022/09/03 14:09:43;;;;;;;6.47;3.20;;;;;;;27.10;32.28;100882.53;4975844;28;20041;-72
2022/09/03 14:15:39;;;;;;;7.05;3.42;;;;;;;27.02;33.18;100877.88;4975549;28;20539;-73
2022/09/03 14:24:54;;;;;;;7.88;3.13;;;;;;;26.79;32.86;100890.91;4975658;28;20038;-73
2022/09/03 14:30:58;;;;;;;4.80;3.22;;;;;;;26.62;33.94;100899.13;4974992;28;20151;-74
2022/09/03 14:37:04;;;;;;;8.77;3.67;;;;;;;26.50;33.63;100891.50;4975207;28;20046;-73
2022/09/03 14:39:43;;;;;;;4.55;3.33;;;;;;;26.47;33.41;100892.16;4975250;28;20085;-74
2022/09/03 14:45:49;;;;;;;6.28;3.63;;;;;;;26.49;34.79;100884.41;4975318;28;20140;-74
2022/09/03 14:51:48;;;;;;;4.78;3.17;;;;;;;26.68;34.22;100873.94;4975035;28;20502;-75
2022/09/03 14:54:41;;;;;;;6.18;3.60;;;;;;;26.79;34.10;100877.19;4969278;28;20065;-74
2022/09/03 14:57:15;;;;;;;6.70;3.10;;;;;;;26.81;34.21;100878.47;4973518;28;20387;-75
2022/09/03 15:00:00;;;;;;;8.55;4.05;;;;;;;26.81;33.68;100874.91;4974064;28;20039;-74
2022/09/03 15:09:46;;;;;;;6.10;3.40;;;;;;;26.80;35.50;100868.63;4974732;28;20045;-73
2022/09/03 15:15:50;;;;;;;9.68;3.70;;;;;;;26.62;33.99;100874.44;4974868;28;20130;-76
2022/09/03 15:21:46;;;;;;;7.10;3.70;;;;;;;26.73;34.36;100875.72;4975400;28;20057;-76
2022/09/03 15:27:40;;;;;;;7.32;3.45;;;;;;;26.70;34.14;100876.38;4974777;28;20455;-77
2022/09/03 15:33:43;;;;;;;5.82;3.85;;;;;;;26.65;34.57;100885.56;4974670;28;20105;-76
2022/09/03 15:39:34;;;;;;;5.13;3.90;;;;;;;26.61;35.28;100881.06;4974584;28;20557;-76
2022/09/03 15:45:34;;;;;;;11.80;4.10;;;;;;;26.59;35.13;100878.59;4974434;28;20054;-77
2022/09/03 15:51:32;;;;;;;4.63;3.80;;;;;;;26.61;35.37;100876.38;4974575;28;20061;-75
2022/09/03 15:57:22;;;;;;;6.60;3.90;;;;;;;26.61;36.48;100881.84;4973924;28;20038;-76
2022/09/03 16:03:18;;;;;;;8.57;4.00;;;;;;;26.57;37.56;100885.53;4974071;28;20395;-76
2022/09/03 16:12:48;;;;;;;5.47;3.35;;;;;;;26.47;37.17;100887.47;4974001;28;20046;-74
2022/09/03 16:18:39;;;;;;;7.13;4.13;;;;;;;26.46;36.46;100882.31;4973594;28;20549;-75
2022/09/03 16:24:44;;;;;;;6.60;4.25;;;;;;;26.50;35.76;100886.81;4973864;28;20073;-74
2022/09/03 16:30:57;;;;;;;9.40;5.10;;;;;;;26.27;37.88;100890.75;4973490;28;20054;-74
2022/09/03 16:37:21;;;;;;;8.70;4.50;;;;;;;26.15;37.67;100896.06;4973593;28;20037;-71
2022/09/03 16:40:02;;;;;;;9.50;4.20;;;;;;;26.07;37.19;100892.16;4967923;28;20379;-77